Time;durP1;ratioP1;P1;durP2;ratioP2;P2;SDS_P1;SDS_P2;PMS_P1;PMS_P2;Temp;Humidity;BMP_temperature;BMP_pressure;BME280_temperature;BME280_humidity;BME280_pressure;Samples;Min_cycle;Max_cycle;Signal;HPM_P1;HPM_P2
2021/12/30 03:45:17;;;;;;;35.30;21.83;;;5.80;99.90;;;;;;5699677;24;20028;-81
2021/12/30 03:47:46;;;;;;;37.40;22.63;;;5.80;99.90;;;;;;4793857;29;20031;-81
2021/12/30 03:50:22;;;;;;;40.38;23.65;;;5.80;99.90;;;;;;4786440;29;20031;-81
2021/12/30 03:52:54;;;;;;;43.08;25.15;;;5.80;99.90;;;;;;4817510;29;20230;-81
2021/12/30 03:55:21;;;;;;;37.45;22.27;;;5.80;99.90;;;;;;4831258;29;20387;-81
2021/12/30 03:57:49;;;;;;;35.08;21.73;;;5.80;99.90;;;;;;4800464;29;20039;-82
2021/12/30 04:00:15;;;;;;;41.00;24.08;;;5.80;99.90;;;;;;4814730;29;20293;-81
2021/12/30 04:02:41;;;;;;;36.05;21.88;;;5.80;99.90;;;;;;4819010;29;20039;-82
2021/12/30 04:05:08;;;;;;;41.35;23.67;;;5.80;99.90;;;;;;4823971;29;20042;-82
2021/12/30 04:07:34;;;;;;;42.20;23.52;;;5.80;99.90;;;;;;4823545;29;20168;-82
2021/12/30 04:10:00;;;;;;;36.45;22.48;;;5.70;99.90;;;;;;4821039;29;20246;-82
2021/12/30 04:12:26;;;;;;;38.05;22.65;;;5.80;99.90;;;;;;4833508;29;20026;-82
2021/12/30 04:14:52;;;;;;;37.38;22.02;;;5.80;99.90;;;;;;4825850;29;20042;-82
2021/12/30 04:17:17;;;;;;;42.22;23.80;;;5.80;99.90;;;;;;4828465;29;20038;-82
2021/12/30 04:19:43;;;;;;;37.20;23.17;;;5.70;99.90;;;;;;4831581;29;20259;-82
2021/12/30 04:22:09;;;;;;;38.28;22.95;;;5.80;99.90;;;;;;4823824;29;20038;-82
2021/12/30 04:24:35;;;;;;;43.33;24.90;;;5.80;99.90;;;;;;4839166;29;20081;-83
2021/12/30 04:27:01;;;;;;;37.35;22.60;;;5.90;99.90;;;;;;4824217;29;20038;-82
2021/12/30 04:29:26;;;;;;;38.50;23.25;;;5.90;99.90;;;;;;4791253;29;20054;-82
2021/12/30 04:31:52;;;;;;;34.10;21.70;;;5.90;99.90;;;;;;4839517;29;20034;-82
2021/12/30 04:34:18;;;;;;;41.72;24.75;;;5.90;99.90;;;;;;4824664;29;20084;-82
2021/12/30 04:36:44;;;;;;;43.00;25.25;;;5.90;99.90;;;;;;4808972;29;20276;-82
2021/12/30 04:39:10;;;;;;;41.85;24.23;;;5.80;99.90;;;;;;4822110;29;20389;-82
2021/12/30 04:41:36;;;;;;;40.57;24.63;;;5.80;99.90;;;;;;4826863;29;20151;-82
2021/12/30 04:44:02;;;;;;;35.60;22.35;;;5.80;99.90;;;;;;4821911;29;20030;-81
2021/12/30 04:46:28;;;;;;;39.17;24.75;;;5.80;99.90;;;;;;4849762;29;20045;-82
2021/12/30 04:48:54;;;;;;;36.22;22.98;;;5.80;99.90;;;;;;4822509;29;20042;-84
2021/12/30 04:51:20;;;;;;;39.97;24.15;;;5.80;99.90;;;;;;4822658;29;20075;-82
2021/12/30 04:53:47;;;;;;;37.78;23.58;;;5.80;99.90;;;;;;4820775;29;20052;-83
2021/12/30 04:56:13;;;;;;;35.55;22.35;;;5.90;99.90;;;;;;4835863;29;20023;-82
2021/12/30 04:58:39;;;;;;;38.40;22.52;;;5.90;99.90;;;;;;4831970;29;20045;-83
2021/12/30 05:01:05;;;;;;;41.33;25.60;;;5.90;99.90;;;;;;4838828;29;20076;-84
2021/12/30 05:03:31;;;;;;;37.53;23.80;;;5.80;99.90;;;;;;4808669;29;20038;-84
2021/12/30 05:05:58;;;;;;;40.83;24.73;;;5.80;99.90;;;;;;4793893;29;20349;-83
2021/12/30 05:08:24;;;;;;;;;;;5.80;99.90;;;;;;4840536;29;20034;-84
2021/12/30 05:10:52;;;;;;;40.08;24.33;;;5.80;99.90;;;;;;4842738;29;19909;-84
2021/12/30 05:13:18;;;;;;;40.45;23.98;;;5.80;99.90;;;;;;4838333;29;20022;-83
2021/12/30 05:15:46;;;;;;;44.72;25.05;;;5.90;99.90;;;;;;4817355;29;20413;-83
2021/12/30 05:18:14;;;;;;;46.45;26.20;;;5.90;99.90;;;;;;4793369;29;20046;-84
2021/12/30 05:20:41;;;;;;;51.55;26.60;;;6.00;99.90;;;;;;4820983;29;20045;-84
2021/12/30 05:23:09;;;;;;;43.30;26.05;;;5.90;99.90;;;;;;4805176;29;20337;-84
2021/12/30 05:25:35;;;;;;;;;;;5.90;99.90;;;;;;4831634;29;20132;-83
2021/12/30 05:28:01;;;;;;;49.27;26.80;;;5.90;99.90;;;;;;4820449;29;20189;-84
2021/12/30 05:30:27;;;;;;;58.08;27.35;;;5.80;99.90;;;;;;4817544;29;20284;-84
2021/12/30 05:32:55;;;;;;;53.70;28.60;;;5.80;99.90;;;;;;4817288;29;20361;-83
2021/12/30 05:35:22;;;;;;;46.38;27.50;;;5.70;99.90;;;;;;4825613;29;20259;-83
2021/12/30 05:37:48;;;;;;;;;;;5.70;99.90;;;;;;4844405;29;20060;-83
2021/12/30 05:40:17;;;;;;;42.35;24.63;;;5.70;99.90;;;;;;4826341;29;19920;-83
2021/12/30 05:42:44;;;;;;;43.58;26.25;;;5.80;99.90;;;;;;4841366;29;20065;-84
2021/12/30 05:45:11;;;;;;;52.67;28.83;;;5.80;99.90;;;;;;4822535;29;20039;-85
2021/12/30 05:47:37;;;;;;;;;;;5.90;99.90;;;;;;4830967;29;20052;-84
2021/12/30 05:50:06;;;;;;;41.17;23.48;;;5.90;99.90;;;;;;4835286;29;19912;-83
2021/12/30 05:52:32;;;;;;;43.05;25.17;;;5.90;99.90;;;;;;4833465;29;20075;-83
2021/12/30 05:54:58;;;;;;;40.63;24.10;;;6.00;99.90;;;;;;4822836;29;20061;-84
2021/12/30 05:57:24;;;;;;;42.17;25.30;;;6.00;99.90;;;;;;4817773;29;20035;-84
2021/12/30 05:59:50;;;;;;;43.30;25.40;;;6.00;99.90;;;;;;4814607;29;20031;-84
2021/12/30 06:02:16;;;;;;;45.28;26.02;;;6.00;99.90;;;;;;4822589;29;20038;-84
2021/12/30 06:04:42;;;;;;;41.20;24.58;;;6.00;99.90;;;;;;4806009;29;20039;-83
2021/12/30 06:07:09;;;;;;;40.38;22.73;;;6.00;99.90;;;;;;4818174;29;20082;-83
2021/12/30 06:09:35;;;;;;;41.28;24.20;;;6.10;99.90;;;;;;4819734;29;20034;-83
2021/12/30 06:12:01;;;;;;;42.90;24.63;;;6.20;99.90;;;;;;4811166;29;20035;-83
2021/12/30 06:14:27;;;;;;;43.08;24.80;;;6.20;99.90;;;;;;4819634;29;20030;-82
2021/12/30 06:16:53;;;;;;;45.10;26.15;;;6.20;99.90;;;;;;4804424;29;20031;-83
2021/12/30 06:19:19;;;;;;;42.25;24.05;;;6.30;99.90;;;;;;4820937;29;20038;-83
2021/12/30 06:21:45;;;;;;;46.95;27.45;;;6.30;99.90;;;;;;4834712;29;20037;-84
2021/12/30 06:24:10;;;;;;;45.60;27.83;;;6.30;99.90;;;;;;4808686;29;20046;-84
2021/12/30 06:26:37;;;;;;;47.78;27.70;;;6.30;99.90;;;;;;4820302;29;20043;-84
2021/12/30 06:29:03;;;;;;;44.67;27.67;;;6.30;99.90;;;;;;4806527;29;20031;-84
2021/12/30 06:31:29;;;;;;;40.97;24.63;;;6.20;99.90;;;;;;4795291;29;20397;-84
2021/12/30 06:33:54;;;;;;;50.60;27.67;;;6.20;99.90;;;;;;4816977;29;20091;-85
2021/12/30 06:36:21;;;;;;;48.38;27.13;;;6.20;99.90;;;;;;4816301;29;20046;-84
2021/12/30 06:38:48;;;;;;;44.28;25.45;;;6.20;99.90;;;;;;4783707;29;20050;-84
2021/12/30 06:41:15;;;;;;;43.50;25.98;;;6.20;99.90;;;;;;4813856;29;20157;-84
2021/12/30 06:43:41;;;;;;;51.63;27.73;;;6.20;99.90;;;;;;4817100;29;20031;-84
2021/12/30 06:46:09;;;;;;;54.27;28.90;;;6.20;99.90;;;;;;4813892;29;20301;-85
2021/12/30 06:48:35;;;;;;;46.33;27.75;;;6.20;99.90;;;;;;4807155;29;20030;-83
2021/12/30 06:51:04;;;;;;;44.85;26.27;;;6.20;99.90;;;;;;4820317;29;20222;-83
2021/12/30 06:53:30;;;;;;;48.60;27.75;;;6.20;99.90;;;;;;4836550;29;20034;-85
2021/12/30 06:55:56;;;;;;;47.13;25.83;;;6.20;99.90;;;;;;4833352;29;20042;-84
2021/12/30 06:58:22;;;;;;;51.13;27.95;;;6.20;99.90;;;;;;4821337;29;20330;-82
2021/12/30 07:00:49;;;;;;;45.20;27.08;;;6.20;99.90;;;;;;4820661;29;20214;-83
2021/12/30 07:03:15;;;;;;;43.63;26.15;;;6.20;99.90;;;;;;4823834;29;20042;-83
2021/12/30 07:05:41;;;;;;;39.97;23.63;;;6.20;99.90;;;;;;4825507;29;20046;-83
2021/12/30 07:08:07;;;;;;;42.20;24.30;;;6.30;99.90;;;;;;4792656;29;20117;-84
2021/12/30 07:10:33;;;;;;;52.45;27.27;;;6.30;99.90;;;;;;4833486;29;20041;-84
2021/12/30 07:12:59;;;;;;;50.35;28.73;;;6.40;99.90;;;;;;4818739;29;20050;-84
2021/12/30 07:15:25;;;;;;;45.15;26.17;;;6.40;99.90;;;;;;4818626;29;20034;-85
2021/12/30 07:17:50;;;;;;;54.17;27.48;;;6.40;99.90;;;;;;4817927;29;20109;-84
2021/12/30 07:20:17;;;;;;;50.78;28.45;;;6.40;99.90;;;;;;4803025;29;20042;-83
2021/12/30 07:22:42;;;;;;;44.20;26.38;;;6.40;99.90;;;;;;4817415;29;20341;-84
2021/12/30 07:25:16;;;;;;;49.38;29.42;;;6.40;99.90;;;;;;4815149;29;20046;-83
2021/12/30 07:27:52;;;;;;;46.95;26.70;;;6.50;99.90;;;;;;4799485;29;20034;-83
2021/12/30 07:30:19;;;;;;;41.45;26.10;;;6.50;99.90;;;;;;4818565;29;20045;-83
2021/12/30 07:32:46;;;;;;;36.95;22.25;;;6.60;99.90;;;;;;4815254;29;20041;-83
2021/12/30 07:35:12;;;;;;;39.10;22.95;;;6.60;99.90;;;;;;4813460;29;20053;-83
2021/12/30 07:37:38;;;;;;;34.72;23.42;;;6.70;99.90;;;;;;4827019;29;20331;-83
2021/12/30 07:40:05;;;;;;;41.75;24.33;;;6.80;99.90;;;;;;4818309;29;20022;-84
2021/12/30 07:42:31;;;;;;;45.63;26.38;;;6.80;99.90;;;;;;4818035;29;20057;-84
2021/12/30 07:44:57;;;;;;;42.63;24.13;;;6.90;99.90;;;;;;4809743;29;20477;-84
2021/12/30 07:47:23;;;;;;;47.15;26.02;;;6.90;99.90;;;;;;4844362;29;20094;-84
2021/12/30 07:49:48;;;;;;;48.03;27.15;;;6.90;99.90;;;;;;4817274;29;20330;-83
2021/12/30 07:52:15;;;;;;;40.17;23.52;;;6.90;99.90;;;;;;4814012;29;20037;-83
2021/12/30 07:54:43;;;;;;;47.95;27.55;;;7.00;99.90;;;;;;4833184;29;20034;-83
2021/12/30 07:57:18;;;;;;;42.40;25.23;;;7.00;99.90;;;;;;4841022;29;20046;-83
2021/12/30 07:59:44;;;;;;;46.65;25.65;;;7.00;99.90;;;;;;4821606;29;20030;-83
2021/12/30 08:02:09;;;;;;;44.53;24.27;;;7.10;99.90;;;;;;4802509;29;20091;-83
2021/12/30 08:04:35;;;;;;;38.85;23.30;;;7.20;99.90;;;;;;4814890;29;20049;-83
2021/12/30 08:07:01;;;;;;;42.83;24.58;;;7.40;99.90;;;;;;4789197;29;20059;-83
2021/12/30 08:09:27;;;;;;;43.42;24.67;;;7.50;99.90;;;;;;4817908;29;20038;-83
2021/12/30 08:11:53;;;;;;;42.97;26.05;;;7.50;99.90;;;;;;4815681;29;20113;-83
2021/12/30 08:14:18;;;;;;;34.42;22.52;;;7.50;99.90;;;;;;4802225;29;20030;-83
2021/12/30 08:16:44;;;;;;;38.08;23.58;;;7.50;99.90;;;;;;4817122;29;20118;-83
2021/12/30 08:19:10;;;;;;;33.47;21.73;;;7.60;99.90;;;;;;4815677;29;20041;-84
2021/12/30 08:21:36;;;;;;;32.22;19.83;;;7.70;99.90;;;;;;4815707;29;20109;-84
2021/12/30 08:24:02;;;;;;;35.75;21.25;;;7.70;99.90;;;;;;4830906;29;20038;-82
2021/12/30 08:26:27;;;;;;;37.67;22.33;;;7.80;99.90;;;;;;4816175;29;20022;-83
2021/12/30 08:28:53;;;;;;;37.63;22.85;;;7.80;99.90;;;;;;4831543;29;20321;-83
2021/12/30 08:31:19;;;;;;;35.75;21.35;;;7.80;99.90;;;;;;4818473;29;20047;-83
2021/12/30 08:33:45;;;;;;;32.75;20.25;;;7.80;99.90;;;;;;4806998;29;20091;-81
2021/12/30 08:36:11;;;;;;;34.22;20.95;;;7.80;99.90;;;;;;4818884;29;20030;-83
2021/12/30 08:38:36;;;;;;;37.40;22.20;;;7.70;99.90;;;;;;4805577;29;20045;-83
2021/12/30 08:41:02;;;;;;;40.25;23.92;;;7.70;99.90;;;;;;4831457;29;20106;-83
2021/12/30 08:43:28;;;;;;;45.58;26.33;;;7.80;99.90;;;;;;4801593;29;20045;-83
2021/12/30 08:45:54;;;;;;;38.40;22.08;;;7.70;99.90;;;;;;4832249;29;20055;-83
2021/12/30 08:48:20;;;;;;;46.53;23.23;;;7.80;99.90;;;;;;4811906;29;20053;-83
2021/12/30 08:50:46;;;;;;;39.40;23.75;;;7.80;99.90;;;;;;4818510;29;20042;-83
2021/12/30 08:53:14;;;;;;;42.80;24.50;;;7.90;99.90;;;;;;4820648;29;20222;-83
2021/12/30 08:55:40;;;;;;;40.92;23.60;;;7.90;99.90;;;;;;4806696;29;20389;-83
2021/12/30 08:58:06;;;;;;;47.08;27.83;;;8.00;99.90;;;;;;4807247;29;20030;-82
2021/12/30 09:00:36;;;;;;;53.60;32.00;;;8.00;99.90;;;;;;4817671;29;20035;-83
2021/12/30 09:03:04;;;;;;;76.35;49.65;;;8.00;99.90;;;;;;4819525;29;20040;-83
2021/12/30 09:05:32;;;;;;;60.90;31.52;;;8.00;99.90;;;;;;4817968;29;20042;-83
2021/12/30 09:07:58;;;;;;;54.72;32.35;;;8.00;99.90;;;;;;4821017;29;20331;-83
2021/12/30 09:10:25;;;;;;;48.90;29.43;;;8.00;99.90;;;;;;4835914;29;20042;-83
2021/12/30 09:12:52;;;;;;;57.30;30.67;;;8.00;99.90;;;;;;4818783;29;20035;-83
2021/12/30 09:15:19;;;;;;;;;;;8.00;99.90;;;;;;4790314;29;20043;-84
2021/12/30 09:17:46;;;;;;;;;;;8.10;99.90;;;;;;4835377;29;19936;-84
2021/12/30 09:20:12;;;;;;;56.80;32.17;;;8.20;99.90;;;;;;4821732;29;19924;-83
2021/12/30 09:22:38;;;;;;;53.67;29.38;;;8.20;99.90;;;;;;4833843;29;20042;-83
2021/12/30 09:25:07;;;;;;;66.85;31.92;;;8.30;99.90;;;;;;4823205;29;20050;-83
2021/12/30 09:27:34;;;;;;;55.67;29.67;;;8.30;99.90;;;;;;4818272;29;20042;-83
2021/12/30 09:30:00;;;;;;;;;;;8.30;99.90;;;;;;4820096;29;20057;-82
2021/12/30 09:32:26;;;;;;;65.75;33.47;;;8.30;99.90;;;;;;4822638;29;20086;-82
2021/12/30 09:34:52;;;;;;;64.25;34.25;;;8.40;99.90;;;;;;4819656;29;20087;-83
2021/12/30 09:37:18;;;;;;;66.45;34.95;;;8.20;99.90;;;;;;4818179;29;20057;-82
2021/12/30 09:39:44;;;;;;;82.68;39.38;;;8.20;99.90;;;;;;4788681;29;20062;-82
2021/12/30 09:42:10;;;;;;;82.40;40.40;;;8.10;99.90;;;;;;4803460;29;20354;-82
2021/12/30 09:44:36;;;;;;;78.85;39.35;;;8.10;99.90;;;;;;4805255;29;20042;-82
2021/12/30 09:47:02;;;;;;;74.40;39.47;;;8.10;99.90;;;;;;4819214;29;20100;-81
2021/12/30 09:49:28;;;;;;;72.22;35.15;;;8.20;99.90;;;;;;4819954;29;20069;-81
2021/12/30 09:51:54;;;;;;;64.95;36.00;;;8.20;99.90;;;;;;4818950;29;20034;-82
2021/12/30 09:54:21;;;;;;;83.18;39.08;;;8.20;99.90;;;;;;4817957;29;20234;-82
2021/12/30 09:56:47;;;;;;;66.20;35.33;;;8.30;99.90;;;;;;4806227;29;20038;-82
2021/12/30 09:59:15;;;;;;;69.97;37.13;;;8.40;99.90;;;;;;4817447;29;20229;-83
2021/12/30 10:01:42;;;;;;;66.03;35.85;;;8.50;99.90;;;;;;4828765;29;20039;-83
2021/12/30 10:04:10;;;;;;;67.32;34.35;;;8.70;99.90;;;;;;4838492;29;20038;-83
2021/12/30 10:06:42;;;;;;;77.78;37.25;;;8.80;99.90;;;;;;4832312;29;20061;-82
2021/12/30 10:09:13;;;;;;;66.53;34.78;;;8.90;99.90;;;;;;4829812;29;20230;-82
2021/12/30 10:11:51;;;;;;;71.45;36.22;;;9.00;99.90;;;;;;4805243;29;20058;-82
2021/12/30 10:14:32;;;;;;;63.50;32.97;;;9.20;99.90;;;;;;4833239;29;20027;-80
2021/12/30 10:17:33;;;;;;;63.58;33.40;;;9.30;99.90;;;;;;4832445;29;20101;-82
2021/12/30 10:20:16;;;;;;;62.50;33.90;;;9.50;99.90;;;;;;4782828;30;20110;-82
2021/12/30 10:22:42;;;;;;;58.63;31.67;;;9.60;99.90;;;;;;4780914;29;20300;-81
2021/12/30 10:25:33;;;;;;;64.23;37.57;;;9.60;99.90;;;;;;4766399;29;20321;-80
2021/12/30 10:28:36;;;;;;;59.00;32.22;;;9.60;99.90;;;;;;4747972;30;20072;-82
2021/12/30 10:31:10;;;;;;;51.22;29.00;;;9.70;99.90;;;;;;4746229;30;20040;-82
2021/12/30 10:33:37;;;;;;;55.15;30.75;;;9.80;99.90;;;;;;4749685;30;20071;-82
2021/12/30 10:36:21;;;;;;;59.97;32.08;;;10.10;99.90;;;;;;4722349;30;20040;-81
2021/12/30 10:38:48;;;;;;;61.95;31.55;;;10.30;99.90;;;;;;4747312;30;20051;-82
2021/12/30 10:41:14;;;;;;;61.60;33.13;;;10.50;99.90;;;;;;4755785;30;20115;-82
2021/12/30 10:46:18;;;;;;;59.38;32.97;;;10.40;99.90;;;;;;4741554;30;20292;-82
2021/12/30 10:48:54;;;;;;;54.53;32.92;;;10.50;99.90;;;;;;4751376;30;20104;-81
2021/12/30 10:51:32;;;;;;;54.13;31.27;;;10.50;99.90;;;;;;4741159;30;20039;-81
2021/12/30 10:53:59;;;;;;;54.22;32.17;;;10.60;99.90;;;;;;4773368;30;20089;-82
2021/12/30 10:56:37;;;;;;;54.95;30.92;;;10.70;99.90;;;;;;4734564;30;20218;-81
2021/12/30 10:59:20;;;;;;;53.92;31.38;;;10.70;99.90;;;;;;4769146;30;20092;-82
2021/12/30 11:01:58;;;;;;;49.47;29.42;;;10.70;99.90;;;;;;4755626;30;20071;-80
2021/12/30 11:04:50;;;;;;;49.50;27.90;;;10.70;99.90;;;;;;4776784;29;20070;-82
2021/12/30 11:07:18;;;;;;;41.65;26.17;;;10.90;99.90;;;;;;4801406;29;20046;-81
2021/12/30 11:09:47;;;;;;;40.10;23.75;;;11.00;99.90;;;;;;4801390;29;20049;-81
2021/12/30 11:12:14;;;;;;;42.25;24.42;;;11.00;99.90;;;;;;4814430;29;20038;-82
2021/12/30 11:14:40;;;;;;;40.73;23.10;;;11.10;99.90;;;;;;4803071;29;20053;-81
2021/12/30 11:17:17;;;;;;;40.40;23.13;;;11.10;99.90;;;;;;4800535;29;20046;-82
2021/12/30 11:19:54;;;;;;;35.50;22.75;;;11.20;99.90;;;;;;4829205;29;20341;-81
2021/12/30 11:22:25;;;;;;;41.72;25.42;;;11.30;99.90;;;;;;4801292;29;20034;-81
2021/12/30 11:24:55;;;;;;;40.25;23.85;;;11.40;99.90;;;;;;4800976;29;20334;-80
2021/12/30 11:27:22;;;;;;;38.35;22.67;;;11.40;99.90;;;;;;4801195;29;20083;-80
2021/12/30 11:29:54;;;;;;;35.65;22.35;;;11.50;99.90;;;;;;4806344;29;20034;-82
2021/12/30 11:32:23;;;;;;;37.35;23.55;;;11.60;99.90;;;;;;4811595;29;20109;-82
2021/12/30 11:34:49;;;;;;;34.38;22.52;;;11.60;99.90;;;;;;4814047;29;20036;-82
2021/12/30 11:37:17;;;;;;;38.35;23.73;;;11.70;99.90;;;;;;4796945;29;20073;-81
2021/12/30 11:39:49;;;;;;;43.90;25.38;;;11.80;99.90;;;;;;4803940;29;20053;-82
2021/12/30 11:42:29;;;;;;;38.28;23.50;;;11.80;99.90;;;;;;4811246;29;20056;-82
2021/12/30 11:44:58;;;;;;;38.20;23.63;;;11.90;99.90;;;;;;4814512;29;20282;-82
2021/12/30 11:47:36;;;;;;;41.92;23.45;;;11.90;99.90;;;;;;4806539;29;20069;-81
2021/12/30 11:50:15;;;;;;;41.67;25.20;;;12.00;99.90;;;;;;4815597;29;20034;-82
2021/12/30 11:52:45;;;;;;;40.60;24.42;;;11.90;99.90;;;;;;4832016;29;20034;-81
2021/12/30 11:55:39;;;;;;;39.38;25.13;;;11.90;99.90;;;;;;4804398;29;20070;-81
2021/12/30 11:58:27;;;;;;;42.08;26.40;;;11.90;99.90;;;;;;4825885;29;20049;-82
2021/12/30 12:00:55;;;;;;;43.13;26.40;;;12.00;99.90;;;;;;4834542;29;20110;-82
2021/12/30 12:03:27;;;;;;;42.55;26.15;;;12.10;99.90;;;;;;4832653;29;20107;-81
2021/12/30 12:05:53;;;;;;;43.42;25.10;;;12.10;99.90;;;;;;4831400;29;20203;-81
2021/12/30 12:08:19;;;;;;;39.60;24.83;;;12.10;99.90;;;;;;4833417;29;20075;-81
2021/12/30 12:11:15;;;;;;;34.88;23.08;;;12.30;99.90;;;;;;4816530;29;20214;-81
2021/12/30 12:13:46;;;;;;;42.35;24.38;;;12.40;99.90;;;;;;4816797;29;20030;-82
2021/12/30 12:16:35;;;;;;;36.63;25.00;;;12.50;99.90;;;;;;4834354;29;20034;-81
2021/12/30 12:19:09;;;;;;;42.92;25.45;;;12.70;99.90;;;;;;4814619;29;20045;-82
2021/12/30 12:21:39;;;;;;;37.80;24.10;;;12.90;99.90;;;;;;4819851;29;20092;-82
2021/12/30 12:24:36;;;;;;;41.28;24.65;;;13.00;99.90;;;;;;4813720;29;20342;-82
2021/12/30 12:27:11;;;;;;;35.10;22.33;;;13.00;99.90;;;;;;4832105;29;20053;-81
2021/12/30 12:29:46;;;;;;;41.15;22.95;;;13.10;99.90;;;;;;4815434;29;20057;-82
2021/12/30 12:32:33;;;;;;;31.65;21.17;;;13.10;99.90;;;;;;4821260;29;20053;-82
2021/12/30 12:35:04;;;;;;;35.00;21.95;;;13.00;99.90;;;;;;4832230;29;20030;-82
2021/12/30 12:37:32;;;;;;;35.28;21.73;;;13.10;99.90;;;;;;4815351;29;20349;-82
2021/12/30 12:40:13;;;;;;;28.75;19.13;;;13.10;99.90;;;;;;4829216;29;20048;-82
2021/12/30 12:42:51;;;;;;;29.85;20.27;;;13.00;99.90;;;;;;4819290;29;20267;-82
2021/12/30 12:45:33;;;;;;;31.58;20.60;;;13.00;99.90;;;;;;4833522;29;20287;-82
2021/12/30 12:50:47;;;;;;;32.88;20.85;;;13.00;99.90;;;;;;4833317;29;20038;-82
2021/12/30 12:53:28;;;;;;;29.60;19.30;;;13.00;99.90;;;;;;4823108;29;20289;-81
2021/12/30 12:55:57;;;;;;;33.22;21.45;;;13.10;99.90;;;;;;4836900;29;20234;-81
2021/12/30 12:58:25;;;;;;;34.03;21.42;;;13.10;99.90;;;;;;4823644;29;20230;-81
2021/12/30 13:00:51;;;;;;;30.00;20.38;;;13.10;99.90;;;;;;4836456;29;20046;-81
2021/12/30 13:03:19;;;;;;;30.27;20.50;;;13.00;99.90;;;;;;4819635;29;20075;-82
2021/12/30 13:05:59;;;;;;;31.05;20.15;;;13.00;99.90;;;;;;4817699;29;20330;-81
2021/12/30 13:08:27;;;;;;;29.92;20.70;;;13.00;99.90;;;;;;4833247;29;20346;-82
2021/12/30 13:10:53;;;;;;;28.63;19.85;;;13.10;99.90;;;;;;4833663;29;20046;-82
2021/12/30 13:13:33;;;;;;;31.60;21.55;;;13.10;99.90;;;;;;4818398;29;20038;-82
2021/12/30 13:16:01;;;;;;;33.80;20.77;;;13.20;99.90;;;;;;4833556;29;20102;-81
2021/12/30 13:18:27;;;;;;;34.03;22.33;;;13.20;99.90;;;;;;4829871;29;20046;-81
2021/12/30 13:20:53;;;;;;;30.70;20.58;;;13.20;99.90;;;;;;4822248;29;20149;-82
2021/12/30 13:23:45;;;;;;;30.50;20.77;;;13.10;99.90;;;;;;4820234;29;20238;-80
2021/12/30 13:26:11;;;;;;;30.85;21.42;;;13.10;99.90;;;;;;4769952;29;20074;-82
2021/12/30 13:28:50;;;;;;;31.70;21.45;;;13.10;99.90;;;;;;4784253;29;20046;-83
2021/12/30 13:31:17;;;;;;;33.33;22.60;;;13.10;99.90;;;;;;4783799;29;20051;-83
2021/12/30 13:34:03;;;;;;;32.70;22.40;;;13.00;99.90;;;;;;4784596;29;20460;-82
2021/12/30 13:36:29;;;;;;;40.58;23.20;;;13.10;99.90;;;;;;4787173;29;20043;-83
2021/12/30 13:39:10;;;;;;;34.63;23.08;;;13.10;99.90;;;;;;4768568;29;20087;-82
2021/12/30 13:41:37;;;;;;;33.90;22.73;;;13.00;99.90;;;;;;4788733;29;20273;-83
2021/12/30 13:44:07;;;;;;;32.80;21.65;;;12.90;99.90;;;;;;4770130;29;20034;-81
2021/12/30 13:46:33;;;;;;;30.40;21.05;;;12.80;99.90;;;;;;4787047;29;20354;-81
2021/12/30 13:48:59;;;;;;;30.65;20.35;;;12.70;99.90;;;;;;4784810;29;20125;-81
2021/12/30 13:51:28;;;;;;;31.13;22.15;;;12.70;99.90;;;;;;4775326;29;20329;-81
2021/12/30 13:53:54;;;;;;;31.15;20.27;;;12.60;99.90;;;;;;4786747;29;20204;-82
2021/12/30 13:56:28;;;;;;;31.73;20.83;;;12.60;99.90;;;;;;4783516;29;20046;-81
2021/12/30 13:58:59;;;;;;;38.08;23.80;;;12.50;99.90;;;;;;4783796;29;20039;-81
2021/12/30 14:01:29;;;;;;;36.65;24.90;;;12.40;99.90;;;;;;4760067;29;20049;-81
2021/12/30 14:04:13;;;;;;;37.03;25.58;;;12.20;99.90;;;;;;4830668;29;20046;-81
2021/12/30 14:06:42;;;;;;;33.95;23.55;;;11.90;99.90;;;;;;4832467;29;20035;-82
2021/12/30 14:09:17;;;;;;;35.63;25.17;;;11.80;99.90;;;;;;4835833;29;20041;-82
2021/12/30 14:11:49;;;;;;;37.30;25.35;;;11.60;99.90;;;;;;4818332;29;20022;-82
2021/12/30 14:14:35;;;;;;;43.78;26.05;;;11.60;99.90;;;;;;4824865;29;20211;-82
2021/12/30 14:17:02;;;;;;;47.30;25.35;;;11.50;99.90;;;;;;4823417;29;20038;-81
2021/12/30 14:19:30;;;;;;;34.88;24.08;;;11.50;99.90;;;;;;4820312;29;20073;-81
2021/12/30 14:21:56;;;;;;;36.92;24.42;;;11.40;99.90;;;;;;4805917;29;20057;-81
2021/12/30 14:24:26;;;;;;;40.85;24.88;;;11.30;99.90;;;;;;4817372;29;20042;-82
2021/12/30 14:27:04;;;;;;;35.63;24.63;;;11.30;99.90;;;;;;4812407;29;20105;-81
2021/12/30 14:29:34;;;;;;;38.30;26.45;;;11.30;99.90;;;;;;4831076;29;20203;-81
2021/12/30 14:32:05;;;;;;;38.70;26.63;;;11.20;99.90;;;;;;4802678;29;20031;-81
2021/12/30 14:34:33;;;;;;;43.28;26.25;;;11.10;99.90;;;;;;4817801;29;20217;-82
2021/12/30 14:37:08;;;;;;;43.20;28.50;;;11.10;99.90;;;;;;4814726;29;20094;-82
2021/12/30 14:39:40;;;;;;;43.65;28.20;;;11.00;99.90;;;;;;4817274;29;20046;-81
2021/12/30 14:42:19;;;;;;;44.78;27.50;;;10.80;99.90;;;;;;4826839;29;20030;-81
2021/12/30 14:44:55;;;;;;;44.65;28.63;;;10.80;99.90;;;;;;4824698;29;20330;-81
2021/12/30 14:47:29;;;;;;;49.38;31.60;;;10.70;99.90;;;;;;4820409;29;20346;-83
2021/12/30 14:50:09;;;;;;;48.05;29.88;;;10.70;99.90;;;;;;4817387;29;20042;-82
2021/12/30 14:52:38;;;;;;;51.55;32.00;;;10.70;99.90;;;;;;4831921;29;20043;-81
2021/12/30 14:55:27;;;;;;;51.58;31.17;;;10.70;99.90;;;;;;4819289;29;20030;-82
2021/12/30 14:57:56;;;;;;;48.75;29.90;;;10.70;99.90;;;;;;4800183;29;20220;-82
2021/12/30 15:00:27;;;;;;;43.80;28.65;;;10.60;99.90;;;;;;4784624;29;20065;-82
2021/12/30 15:02:53;;;;;;;52.72;32.70;;;10.60;99.90;;;;;;4797107;29;20122;-82
2021/12/30 15:05:20;;;;;;;50.03;30.92;;;10.60;99.90;;;;;;4786302;29;20039;-82
2021/12/30 15:07:49;;;;;;;50.67;30.98;;;10.60;99.90;;;;;;4782688;29;20084;-82
2021/12/30 15:10:17;;;;;;;58.45;33.00;;;10.60;99.90;;;;;;4799608;29;20051;-82
2021/12/30 15:12:44;;;;;;;47.97;30.73;;;10.60;99.90;;;;;;4798769;29;20018;-82
2021/12/30 15:15:13;;;;;;;61.45;33.15;;;10.60;99.90;;;;;;4784892;29;20066;-82
2021/12/30 15:17:39;;;;;;;52.08;33.15;;;10.60;99.90;;;;;;4794705;29;20027;-82
2021/12/30 15:20:09;;;;;;;50.38;31.45;;;10.70;99.90;;;;;;4784473;29;20042;-82
2021/12/30 15:22:35;;;;;;;52.80;32.63;;;10.70;99.90;;;;;;4810602;29;20058;-82
2021/12/30 15:25:03;;;;;;;51.95;32.28;;;10.70;99.90;;;;;;4779581;29;20039;-82
2021/12/30 15:27:28;;;;;;;;;;;10.70;99.90;;;;;;4781524;29;20043;-82
2021/12/30 15:29:54;;;;;;;56.60;33.17;;;10.60;99.90;;;;;;4767186;29;19945;-83
2021/12/30 15:32:20;;;;;;;56.10;33.10;;;10.60;99.90;;;;;;4782157;29;20039;-83
2021/12/30 15:34:51;;;;;;;57.95;33.63;;;10.70;99.90;;;;;;4777473;29;20050;-83
2021/12/30 15:37:17;;;;;;;55.63;33.00;;;10.60;99.90;;;;;;4812117;29;20045;-83
2021/12/30 15:39:44;;;;;;;54.47;32.97;;;10.60;99.90;;;;;;4801400;29;20125;-82
2021/12/30 15:42:10;;;;;;;63.15;37.65;;;10.60;99.90;;;;;;4832356;29;20048;-82
2021/12/30 15:44:37;;;;;;;57.42;35.30;;;10.70;99.90;;;;;;4816261;29;20067;-82
2021/12/30 15:47:04;;;;;;;55.95;35.03;;;10.70;99.90;;;;;;4801488;29;20062;-82
2021/12/30 15:49:30;;;;;;;;;;;10.70;99.90;;;;;;4822965;29;20034;-83
2021/12/30 15:51:55;;;;;;;71.20;37.07;;;10.60;99.90;;;;;;4815299;29;20153;-84
2021/12/30 15:54:23;;;;;;;62.13;36.92;;;10.60;99.90;;;;;;4816344;29;20314;-83
2021/12/30 15:56:53;;;;;;;71.57;40.33;;;10.50;99.90;;;;;;4814705;29;20043;-83
2021/12/30 15:59:20;;;;;;;68.90;37.67;;;10.40;99.90;;;;;;4802880;29;20045;-84
2021/12/30 16:01:48;;;;;;;72.53;38.13;;;10.40;99.90;;;;;;4815514;29;20042;-83
2021/12/30 16:04:15;;;;;;;70.35;39.08;;;10.30;99.90;;;;;;4810576;29;20034;-85
2021/12/30 16:06:41;;;;;;;75.60;40.58;;;10.30;99.90;;;;;;4814444;29;20214;-83
2021/12/30 16:09:09;;;;;;;76.33;41.17;;;10.30;99.90;;;;;;4813409;29;20045;-83
2021/12/30 16:11:35;;;;;;;70.43;37.88;;;10.20;99.90;;;;;;4809764;29;20023;-83
2021/12/30 16:14:01;;;;;;;77.63;40.40;;;10.20;99.90;;;;;;4800035;29;20113;-83
2021/12/30 16:16:27;;;;;;;71.18;39.22;;;10.10;99.90;;;;;;4818946;29;20091;-83
2021/12/30 16:18:54;;;;;;;78.00;41.93;;;10.10;99.90;;;;;;4811762;29;20034;-83
2021/12/30 16:21:20;;;;;;;71.60;39.97;;;10.10;99.90;;;;;;4812530;29;20038;-83
2021/12/30 16:23:46;;;;;;;68.22;39.10;;;10.10;99.90;;;;;;4819719;29;20029;-83
2021/12/30 16:26:12;;;;;;;81.82;43.38;;;10.10;99.90;;;;;;4786054;29;20047;-83
2021/12/30 16:28:39;;;;;;;73.43;40.67;;;10.10;99.90;;;;;;4811941;29;20234;-82
2021/12/30 16:31:06;;;;;;;72.75;39.80;;;10.10;99.90;;;;;;4823665;29;20306;-84
2021/12/30 16:33:32;;;;;;;75.65;41.88;;;10.00;99.90;;;;;;4816026;29;20038;-83
2021/12/30 16:35:58;;;;;;;79.60;43.95;;;10.10;99.90;;;;;;4813883;29;20388;-82